Scroll down
FLIGHT INFORMATION
Comair

CAW714

At Arrival Gate

FAEL
 FAOR
DATE: 2020-07-14
GATE: 
GATE DEPARTURE: 20:25
TAKEOFF: 20:33
DATE: 2020-07-14
GATE:  -
LANDING: 21:53
GATE ARRIVAL: 21:59
FLIGHT DATA
Crew: 
Speed: 
868 kph
Altitude: 
37,020 ft
Stage Length: 
768.4 km
Block Time: 
1.5 hrs
Flight Time: 
1.3 hrs
Fuel Used: 
3,899 kg
Cleared Route: FAEL ETBIN EXABU DUDVU XADUP OKREV OKDIN DUVPI OKTEK AVILO FAOR
TRACK DATA
50,000 ft 1,000 kts
AIRCRAFT INFO AND CUMULATIVE STATS
Aircraft Type: 
B738BW
Registration: 
SELCAL: 
CQAR
MSN/LN: 
32732 / 1056
Operator: 
Total Flights: 
2
Total Block Time: 
3.2 hrs
Total Flight Time: 
2.9 hrs
Total Fuel Used: 
8,727 kg
DATALINK LOG | Newest first | Current as of: 2022-10-04 19:25:43
LABEL SEQUENCE CONTENT Dn/Up
QD005221:59 5.9▼ Dn
QC534721:53▼ Dn
2U4057FAOR 142100Z 18012KT CAVOK 01/M07 Q1028 NOSIG▲ Up
2S4048FAOR▼ Dn
QB344320:33▼ Dn
QA263520:25 14.5▼ Dn
Q02131[LINK ACK]▲ Up
Q02131[LINK TEST]▼ Dn
Q01223[LINK ACK]▲ Up
Q01223[LINK TEST]▼ Dn


AIRCRAFT HISTORY
FLIGHT DATE FLIGHT NO. ORIGIN DESTINATION CLEARED ROUTE BLOCK TIME FLIGHT TIME FUEL USED PILOT
2020-07-27CAW237FAOR FAPE FAOR OVALA NEVEN ATUXO IXEKI EGTAP XABDO IXEBI TIKER XOXOR ALKAT FAPE1.7 hrs1.5 hrs10,645 lbKevin Hall
2020-07-14CAW714FAEL FAOR FAEL ETBIN EXABU DUDVU XADUP OKREV OKDIN DUVPI OKTEK AVILO FAOR1.5 hrs1.3 hrs8,595 lbKevin Hall